world map with ABL marked

ABL - Airport

This information may not be accurate or current and is not valid for navigation or flight planning. No warranty of fitness for any purpose is made or implied.

flag of Alaskaflag of United States

Donate via PayPal

Additional information is available on the NEW Great Circle Mapper

Location
City:  Ambler, Alaska, United States
ICAO / IATA:PAFM / ABL
FAA:AFM

Details
Type:Airport (Airfield)
Use:Public/Civil
Latitude:67°06'23"N (67.106314)
Longitude:157°51'27"W (-157.857471)
Datum:WGS 1984
Elevation:334 ft (102 m)
Runways:2
Longest:3000 × 60 ft (914 × 18.5 m)

Time
Timezone:UTC+25:08 (DST+26:08)
Local Time:

Weather
METAR:PAFM  310556Z AUTO 00000KT 10SM M21/M24 A2984 RMK AO1 57007

Related Locations
Nearby:
Farthest:FAME: 10921 mi / 17575 km
Marion Island, Prince Edward Islands, ZA

Find:

   beyond  
but within

Other Information
Maps:
Links:
Sources:

  

Sectional Chart

Flight Planning
at skyvector.com

 


Great Circle Mapper   Great Circle Mapper
Great Circle Mapper FAQ   Great Circle Mapper FAQ
  Karl's Home Page
KLSē   KLSē Home
   GC on Facebook
Airlines of the World   Airlines of the World
Donate via PayPal


Copyright © 2004-2014, Karl L. Swartz. All rights reserved.
All trademarks mentioned herein belong to their respective owners.

Please see credits for attribution and copyright information.

Karl Swartz <karl@kls2.com>
  Powered by FreeBSD
Valid HTML 4.01!
Labeled with ICRA
hCard Microformat
Geo Microformat